createdAt,value
2022-08-05T00:00:23.966Z,0.47
2022-08-05T00:02:55.054Z,1.10
2022-08-05T00:06:02.867Z,2.85
2022-08-05T00:08:26.437Z,1.33
2022-08-05T00:11:01.719Z,5.07
2022-08-05T00:13:39.368Z,2.60
2022-08-05T00:16:12.510Z,3.00
2022-08-05T00:18:42.737Z,1.85
2022-08-05T00:21:15.343Z,2.70
2022-08-05T00:24:05.190Z,2.85
2022-08-05T00:26:34.363Z,3.53
2022-08-05T00:29:02.258Z,6.15
2022-08-05T00:31:53.961Z,4.90
2022-08-05T00:34:54.423Z,9.90
2022-08-05T00:37:11.568Z,3.85
2022-08-05T00:39:57.187Z,6.00
2022-08-05T00:42:32.885Z,2.25
2022-08-05T00:45:00.897Z,6.72
2022-08-05T00:47:52.944Z,3.30
2022-08-05T00:50:16.846Z,8.75
2022-08-05T00:52:45.499Z,9.43
2022-08-05T00:55:16.092Z,9.30
2022-08-05T00:57:55.451Z,10.98
2022-08-05T01:00:27.241Z,5.75
2022-08-05T01:02:55.470Z,9.13
2022-08-05T01:05:24.136Z,4.25
2022-08-05T01:08:39.169Z,7.15
2022-08-05T01:10:52.162Z,5.72
2022-08-05T01:13:27.451Z,5.72
2022-08-05T01:16:21.069Z,5.50
2022-08-05T01:19:17.224Z,4.45
2022-08-05T01:22:04.626Z,9.93
2022-08-05T01:24:59.386Z,13.68
2022-08-05T01:28:00.555Z,6.15
2022-08-05T01:30:33.526Z,10.95
2022-08-05T01:33:08.334Z,7.55
2022-08-05T01:35:50.920Z,6.43
2022-08-05T01:38:24.911Z,10.00
2022-08-05T01:40:59.884Z,5.60
2022-08-05T01:43:33.583Z,5.47
2022-08-05T01:46:07.380Z,6.60
2022-08-05T01:48:49.717Z,5.40
2022-08-05T01:51:19.782Z,5.10
2022-08-05T01:53:57.500Z,5.32
2022-08-05T01:58:10.897Z,8.25
2022-08-05T01:59:27.648Z,7.75
2022-08-05T02:01:58.152Z,5.78
2022-08-05T02:04:29.063Z,4.53
2022-08-05T02:06:59.815Z,4.57
2022-08-05T02:09:31.775Z,7.45
2022-08-05T02:12:06.768Z,7.70
2022-08-05T02:14:48.831Z,9.95
2022-08-05T02:18:28.163Z,6.55
2022-08-05T02:20:16.258Z,4.82
2022-08-05T02:22:56.148Z,5.10
2022-08-05T02:25:27.664Z,3.00
2022-08-05T02:28:02.968Z,3.80
2022-08-05T02:30:54.384Z,16.17
2022-08-05T02:33:35.996Z,9.25
2022-08-05T02:36:10.057Z,3.55
2022-08-05T02:38:44.142Z,4.13
2022-08-05T02:41:23.302Z,6.25
2022-08-05T02:44:02.485Z,11.40
2022-08-05T02:46:53.536Z,4.70
2022-08-05T02:49:26.829Z,7.13
2022-08-05T02:52:04.119Z,9.43
2022-08-05T02:54:36.990Z,9.73
2022-08-05T02:57:10.328Z,5.15
2022-08-05T02:59:56.364Z,8.15
2022-08-05T03:02:30.607Z,7.75
2022-08-05T03:05:00.823Z,7.32
2022-08-05T03:08:00.316Z,8.52
2022-08-05T03:10:24.538Z,10.75
2022-08-05T03:12:54.724Z,10.88
2022-08-05T03:15:24.350Z,4.90
2022-08-05T03:17:55.524Z,5.03
2022-08-05T03:20:24.739Z,8.30
2022-08-05T03:22:57.151Z,4.20
2022-08-05T03:25:33.053Z,7.05
2022-08-05T03:28:18.506Z,13.10
2022-08-05T03:30:48.506Z,5.97
2022-08-05T03:33:18.237Z,7.47
2022-08-05T03:35:47.313Z,7.32
2022-08-05T03:38:16.089Z,5.95
2022-08-05T03:40:48.579Z,4.18
2022-08-05T03:44:09.501Z,4.35
2022-08-05T03:46:08.139Z,5.78
2022-08-05T03:48:37.743Z,3.35
2022-08-05T03:52:38.008Z,8.02
2022-08-05T03:55:51.364Z,2.47
2022-08-05T03:56:58.926Z,9.43
2022-08-05T03:59:47.052Z,4.72
2022-08-05T04:02:38.904Z,5.15
2022-08-05T04:05:13.954Z,4.78
2022-08-05T04:07:57.939Z,4.90
2022-08-05T04:10:30.886Z,8.50
2022-08-05T04:13:00.437Z,3.83
2022-08-05T04:15:33.200Z,4.88
2022-08-05T04:18:06.956Z,5.88
2022-08-05T04:20:37.158Z,12.05
2022-08-05T04:23:05.350Z,14.30
2022-08-05T04:25:56.737Z,9.98
2022-08-05T04:28:30.552Z,9.65
2022-08-05T04:31:01.004Z,11.30
2022-08-05T04:33:54.652Z,7.70
2022-08-05T04:36:45.123Z,6.50
2022-08-05T04:39:07.405Z,7.85
2022-08-05T04:41:37.262Z,10.45
2022-08-05T04:44:09.434Z,5.43
2022-08-05T04:46:38.889Z,13.77
2022-08-05T04:49:12.338Z,12.23
2022-08-05T04:51:44.301Z,14.13
2022-08-05T04:54:12.408Z,10.40
2022-08-05T04:56:40.951Z,4.63
2022-08-05T04:59:21.426Z,7.80
2022-08-05T05:02:35.291Z,6.57
2022-08-05T05:04:47.763Z,15.32
2022-08-05T05:07:18.177Z,4.57
2022-08-05T05:09:46.611Z,8.40
2022-08-05T05:12:14.880Z,8.23
2022-08-05T05:14:49.587Z,7.60
2022-08-05T05:17:23.790Z,8.40
2022-08-05T05:19:56.402Z,6.80
2022-08-05T05:22:26.749Z,8.15
2022-08-05T05:24:56.957Z,7.70
2022-08-05T05:27:44.750Z,2.80
2022-08-05T05:30:15.601Z,6.43
2022-08-05T05:33:00.986Z,3.63
2022-08-05T05:35:37.692Z,3.97
2022-08-05T05:38:09.481Z,4.57
2022-08-05T05:40:48.055Z,3.58
2022-08-05T05:43:28.114Z,4.00
2022-08-05T05:46:15.759Z,4.15
2022-08-05T05:48:44.813Z,4.40
2022-08-05T05:51:23.032Z,3.15
2022-08-05T05:53:57.583Z,3.30
2022-08-05T05:56:32.732Z,4.55
2022-08-05T05:59:06.506Z,6.00
2022-08-05T06:01:38.695Z,3.60
2022-08-05T06:04:11.785Z,1.73
2022-08-05T06:06:42.422Z,2.63
2022-08-05T06:09:17.113Z,1.45
2022-08-05T06:12:04.287Z,4.57
2022-08-05T06:14:40.305Z,4.43
2022-08-05T06:17:22.301Z,1.92
2022-08-05T06:19:56.776Z,4.28
2022-08-05T06:22:28.997Z,2.20
2022-08-05T06:24:59.822Z,2.05
2022-08-05T06:28:10.813Z,6.97
2022-08-05T06:30:19.933Z,1.08
2022-08-05T06:32:50.756Z,2.30
2022-08-05T06:36:03.762Z,2.90
2022-08-05T06:38:11.455Z,4.07
2022-08-05T06:40:44.658Z,4.38
2022-08-05T06:43:57.742Z,2.42
2022-08-05T06:46:03.603Z,1.30
2022-08-05T06:48:52.857Z,4.38
2022-08-05T06:51:29.431Z,4.05
2022-08-05T06:53:58.523Z,2.28
2022-08-05T06:56:27.784Z,4.80
2022-08-05T06:58:55.713Z,2.50
2022-08-05T07:01:27.504Z,1.35
2022-08-05T07:03:59.743Z,4.25
2022-08-05T07:06:27.565Z,1.63
2022-08-05T07:08:56.311Z,2.85
2022-08-05T07:11:30.914Z,7.88
2022-08-05T07:14:20.404Z,4.82
2022-08-05T07:17:58.188Z,3.80
2022-08-05T07:20:31.212Z,3.03
2022-08-05T07:22:35.876Z,2.17
2022-08-05T07:25:24.116Z,1.55
2022-08-05T07:27:57.514Z,2.08
2022-08-05T07:30:32.757Z,6.57
2022-08-05T07:33:01.583Z,4.47
2022-08-05T07:35:55.977Z,3.55
2022-08-05T07:38:32.174Z,3.80
2022-08-05T07:42:09.286Z,1.90
2022-08-05T07:43:56.168Z,3.85
2022-08-05T07:46:26.268Z,4.20
2022-08-05T07:49:01.472Z,2.63
2022-08-05T07:51:40.702Z,2.15
2022-08-05T07:54:22.020Z,1.25
2022-08-05T07:57:01.662Z,1.48
2022-08-05T07:59:41.163Z,2.22
2022-08-05T08:02:16.268Z,3.65
2022-08-05T08:04:46.288Z,3.38
2022-08-05T08:07:15.016Z,3.33
2022-08-05T08:09:43.346Z,4.35
2022-08-05T08:12:35.332Z,1.05
2022-08-05T08:15:03.652Z,4.82
2022-08-05T08:17:32.984Z,2.35
2022-08-05T08:20:22.026Z,1.38
2022-08-05T08:22:53.434Z,1.88
2022-08-05T08:25:27.042Z,5.28
2022-08-05T08:28:18.028Z,4.35
2022-08-05T08:30:49.813Z,2.60
2022-08-05T08:33:19.254Z,2.58
2022-08-05T08:35:53.802Z,1.38
2022-08-05T08:38:37.719Z,1.67
2022-08-05T08:41:08.590Z,1.55
2022-08-05T08:45:19.193Z,4.18
2022-08-05T08:46:30.852Z,4.65
2022-08-05T08:50:04.033Z,2.67
2022-08-05T08:52:03.336Z,1.25
2022-08-05T08:54:33.778Z,4.47
2022-08-05T08:57:06.447Z,2.60
2022-08-05T08:59:41.650Z,4.32
2022-08-05T09:02:18.957Z,2.03
2022-08-05T09:05:16.310Z,2.95
2022-08-05T09:07:55.997Z,1.75
2022-08-05T09:10:27.715Z,6.03
2022-08-05T09:13:04.811Z,2.25
2022-08-05T09:15:37.052Z,2.65
2022-08-05T09:18:09.513Z,1.52
2022-08-05T09:20:38.370Z,1.05
2022-08-05T09:23:19.390Z,4.47
2022-08-05T09:26:00.970Z,4.63
2022-08-05T09:28:32.154Z,2.13
2022-08-05T09:31:43.580Z,2.30
2022-08-05T09:33:56.510Z,2.55
2022-08-05T09:36:27.718Z,0.85
2022-08-05T09:39:18.031Z,2.17
2022-08-05T09:41:58.431Z,3.42
2022-08-05T09:44:40.253Z,0.77
2022-08-05T09:47:12.798Z,2.28
2022-08-05T09:49:54.731Z,3.60
2022-08-05T09:52:31.392Z,0.88
2022-08-05T09:55:55.294Z,5.93
2022-08-05T09:57:49.606Z,0.52
2022-08-05T10:00:24.690Z,3.50
2022-08-05T10:02:54.761Z,1.52
2022-08-05T10:05:29.266Z,1.10
2022-08-05T10:08:35.406Z,0.32
2022-08-05T10:10:54.180Z,1.65
2022-08-05T10:13:47.352Z,0.68
2022-08-05T10:16:34.178Z,2.70
2022-08-05T10:19:09.192Z,0.35
2022-08-05T10:21:40.228Z,2.65
2022-08-05T10:24:13.049Z,0.98
2022-08-05T10:26:51.312Z,1.15
2022-08-05T10:29:23.667Z,0.70
2022-08-05T10:32:52.647Z,0.40
2022-08-05T10:35:00.855Z,2.17
2022-08-05T10:37:37.311Z,0.77
2022-08-05T10:40:22.490Z,0.52
2022-08-05T10:43:12.499Z,3.75
2022-08-05T10:45:42.067Z,0.70
2022-08-05T10:48:35.071Z,1.20
2022-08-05T10:51:21.845Z,3.10
2022-08-05T10:53:58.347Z,8.15
2022-08-05T10:56:28.958Z,5.18
2022-08-05T10:59:11.477Z,1.20
2022-08-05T11:01:55.249Z,3.70
2022-08-05T11:04:32.083Z,2.88
2022-08-05T11:07:09.097Z,1.45
2022-08-05T11:09:46.956Z,1.23
2022-08-05T11:12:45.448Z,2.10
2022-08-05T11:15:21.667Z,2.67
2022-08-05T11:17:59.953Z,6.05
2022-08-05T11:20:39.128Z,0.90
2022-08-05T11:23:56.905Z,0.52
2022-08-05T11:26:28.646Z,3.13
2022-08-05T11:29:12.146Z,0.57
2022-08-05T11:31:58.744Z,2.50
2022-08-05T11:34:51.169Z,1.85
2022-08-05T11:38:28.067Z,3.00
2022-08-05T11:41:14.060Z,1.67
2022-08-05T11:44:06.328Z,2.60
2022-08-05T11:46:37.891Z,1.27
2022-08-05T11:49:28.264Z,1.38
2022-08-05T11:51:57.404Z,0.70
2022-08-05T11:54:33.489Z,1.27
2022-08-05T11:57:07.643Z,1.77
2022-08-05T11:59:50.028Z,0.38
2022-08-05T12:02:30.718Z,0.63
2022-08-05T12:05:01.491Z,3.30
2022-08-05T12:08:07.946Z,0.77
2022-08-05T12:10:39.068Z,0.40
2022-08-05T12:13:16.450Z,0.63
2022-08-05T12:15:50.022Z,1.15
2022-08-05T12:18:32.739Z,2.50
2022-08-05T12:21:11.031Z,1.08
2022-08-05T12:23:43.229Z,5.68
2022-08-05T12:26:11.523Z,1.63
2022-08-05T12:28:39.502Z,0.55
2022-08-05T12:31:09.735Z,0.50
2022-08-05T12:33:38.857Z,3.13
2022-08-05T12:36:09.130Z,0.40
2022-08-05T12:38:39.698Z,0.60
2022-08-05T12:41:13.187Z,3.20
2022-08-05T12:43:52.638Z,2.30
2022-08-05T12:46:28.782Z,1.40
2022-08-05T12:48:58.867Z,1.52
2022-08-05T12:52:14.264Z,3.38
2022-08-05T12:54:26.610Z,3.63
2022-08-05T12:56:55.999Z,0.47
2022-08-05T12:59:27.629Z,2.28
2022-08-05T13:02:19.824Z,3.17
2022-08-05T13:04:54.304Z,0.63
2022-08-05T13:07:55.815Z,1.65
2022-08-05T13:10:15.126Z,0.40
2022-08-05T13:12:57.595Z,1.65
2022-08-05T13:15:41.607Z,1.38
2022-08-05T13:18:20.625Z,3.92
2022-08-05T13:20:49.393Z,0.25
2022-08-05T13:23:22.310Z,0.75
2022-08-05T13:25:52.603Z,3.40
2022-08-05T13:28:26.972Z,0.65
2022-08-05T13:30:54.853Z,1.92
2022-08-05T13:34:23.514Z,1.00
2022-08-05T13:36:14.504Z,2.10
2022-08-05T13:38:43.192Z,1.30
2022-08-05T13:41:11.997Z,0.77
2022-08-05T13:43:45.266Z,1.08
2022-08-05T13:47:01.587Z,1.55
2022-08-05T13:49:15.296Z,0.52
2022-08-05T13:51:46.087Z,0.98
2022-08-05T13:54:15.973Z,6.85
2022-08-05T13:56:50.859Z,5.00
2022-08-05T13:59:21.446Z,0.32
2022-08-05T14:01:58.090Z,0.47
2022-08-05T14:04:49.491Z,1.20
2022-08-05T14:07:56.414Z,4.25
2022-08-05T14:10:08.412Z,1.75
2022-08-05T14:12:37.086Z,0.75
2022-08-05T14:16:05.834Z,0.20
2022-08-05T14:17:54.941Z,0.43
2022-08-05T14:20:29.434Z,2.08
2022-08-05T14:22:57.438Z,2.92
2022-08-05T14:25:28.256Z,0.75
2022-08-05T14:27:58.398Z,0.03
2022-08-05T14:30:27.802Z,5.32
2022-08-05T14:32:57.056Z,1.50
2022-08-05T14:35:50.024Z,0.98
2022-08-05T14:38:33.242Z,5.90
2022-08-05T14:41:05.596Z,3.67
2022-08-05T14:44:01.594Z,0.73
2022-08-05T14:46:28.379Z,0.20
2022-08-05T14:48:58.715Z,0.45
2022-08-05T14:51:30.664Z,1.95
2022-08-05T14:54:26.549Z,0.30
2022-08-05T14:56:48.633Z,1.65
2022-08-05T14:59:16.461Z,0.93
2022-08-05T15:01:47.879Z,0.17
2022-08-05T15:04:17.339Z,1.10
2022-08-05T15:06:49.468Z,1.80
2022-08-05T15:09:51.099Z,0.47
2022-08-05T15:12:09.534Z,1.35
2022-08-05T15:14:42.227Z,0.00
2022-08-05T15:17:46.405Z,1.48
2022-08-05T15:20:06.374Z,0.65
2022-08-05T15:22:37.832Z,1.88
2022-08-05T15:25:13.748Z,3.40
2022-08-05T15:27:42.966Z,0.98
2022-08-05T15:30:20.197Z,2.83
2022-08-05T15:32:50.430Z,3.22
2022-08-05T15:35:18.429Z,0.20
2022-08-05T15:38:33.027Z,1.65
2022-08-05T15:41:00.568Z,0.10
2022-08-05T15:43:27.039Z,2.97
2022-08-05T15:46:00.694Z,0.10
2022-08-05T15:48:29.957Z,0.68
2022-08-05T15:51:03.627Z,0.40
2022-08-05T15:53:38.589Z,4.35
2022-08-05T15:56:20.589Z,0.00
2022-08-05T15:58:49.888Z,0.63
2022-08-05T16:01:20.092Z,2.08
2022-08-05T16:03:50.439Z,4.05
2022-08-05T16:06:20.914Z,3.40
2022-08-05T16:08:53.606Z,2.50
2022-08-05T16:11:42.441Z,1.10
2022-08-05T16:14:17.159Z,0.75
2022-08-05T16:16:45.992Z,1.08
2022-08-05T16:19:18.832Z,1.15
2022-08-05T16:21:59.444Z,0.63
2022-08-05T16:24:39.600Z,1.50
2022-08-05T16:27:16.017Z,1.33
2022-08-05T16:29:47.457Z,2.60
2022-08-05T16:32:23.454Z,1.08
2022-08-05T16:34:57.112Z,0.00
2022-08-05T16:38:02.930Z,0.85
2022-08-05T16:40:24.717Z,0.65
2022-08-05T16:42:56.200Z,0.90
2022-08-05T16:46:04.312Z,0.50
2022-08-05T16:48:25.724Z,2.15
2022-08-05T16:50:54.154Z,2.63
2022-08-05T16:53:32.061Z,0.95
2022-08-05T16:56:00.664Z,0.25
2022-08-05T16:58:31.402Z,0.05
2022-08-05T17:01:00.865Z,0.25
2022-08-05T17:03:29.163Z,1.23
2022-08-05T17:06:00.652Z,3.15
2022-08-05T17:08:36.147Z,0.50
2022-08-05T17:11:18.096Z,0.32
2022-08-05T17:13:47.577Z,0.30
2022-08-05T17:16:35.859Z,0.90
2022-08-05T17:19:07.472Z,1.17
2022-08-05T17:21:43.783Z,0.90
2022-08-05T17:24:36.549Z,0.25
2022-08-05T17:27:07.275Z,1.10
2022-08-05T17:29:40.938Z,1.77
2022-08-05T17:32:17.086Z,4.75
2022-08-05T17:34:47.859Z,2.20
2022-08-05T17:37:39.303Z,1.13
2022-08-05T17:40:10.318Z,1.52
2022-08-05T17:42:42.988Z,0.00
2022-08-05T17:45:22.892Z,0.00
2022-08-05T17:47:54.986Z,0.13
2022-08-05T17:50:28.808Z,0.45
2022-08-05T17:53:00.478Z,0.10
2022-08-05T17:55:37.257Z,0.00
2022-08-05T17:58:10.903Z,0.63
2022-08-05T18:00:45.164Z,0.00
2022-08-05T18:03:39.193Z,0.03
2022-08-05T18:06:11.935Z,0.00
2022-08-05T18:08:52.026Z,0.47
2022-08-05T18:11:23.854Z,0.60
2022-08-05T18:13:52.933Z,1.48
2022-08-05T18:16:22.704Z,1.95
2022-08-05T18:18:51.008Z,1.23
2022-08-05T18:21:22.816Z,5.63
2022-08-05T18:23:54.566Z,0.10
2022-08-05T18:26:27.512Z,0.10
2022-08-05T18:28:57.515Z,0.00
2022-08-05T18:31:33.835Z,0.10
2022-08-05T18:34:06.237Z,0.00
2022-08-05T18:36:39.926Z,1.25
2022-08-05T18:39:09.788Z,0.00
2022-08-05T18:42:06.352Z,0.00
2022-08-05T18:44:48.915Z,0.17
2022-08-05T18:47:26.763Z,0.00
2022-08-05T18:50:13.193Z,0.98
2022-08-05T18:52:50.784Z,0.00
2022-08-05T18:55:22.425Z,4.00
2022-08-05T18:57:53.870Z,0.00
2022-08-05T19:00:28.892Z,0.00
2022-08-05T19:03:03.708Z,0.22
2022-08-05T19:06:11.605Z,1.17
2022-08-05T19:08:22.351Z,0.00
2022-08-05T19:11:04.639Z,0.30
2022-08-05T19:13:36.179Z,0.10
2022-08-05T19:16:25.003Z,1.35
2022-08-05T19:18:57.910Z,0.10
2022-08-05T19:21:34.438Z,0.13
2022-08-05T19:24:08.983Z,0.00
2022-08-05T19:26:54.650Z,0.00
2022-08-05T19:29:35.446Z,0.75
2022-08-05T19:32:05.445Z,1.23
2022-08-05T19:34:37.876Z,1.75
2022-08-05T19:37:06.485Z,0.00
2022-08-05T19:39:45.677Z,1.10
2022-08-05T19:42:35.403Z,0.00
2022-08-05T19:45:06.500Z,0.10
2022-08-05T19:47:37.577Z,0.00
2022-08-05T19:50:11.826Z,0.22
2022-08-05T19:52:40.986Z,0.00
2022-08-05T19:56:15.439Z,0.00
2022-08-05T19:58:14.507Z,0.10
2022-08-05T20:00:47.903Z,0.70
2022-08-05T20:03:16.112Z,1.75
2022-08-05T20:05:51.213Z,0.00
2022-08-05T20:08:19.925Z,0.00
2022-08-05T20:10:49.396Z,0.00
2022-08-05T20:13:29.862Z,0.40
2022-08-05T20:16:07.096Z,0.77
2022-08-05T20:18:35.829Z,0.00
2022-08-05T20:21:07.025Z,0.00
2022-08-05T20:23:51.265Z,0.00
2022-08-05T20:26:23.363Z,0.00
2022-08-05T20:28:54.012Z,1.02
2022-08-05T20:31:28.438Z,0.13
2022-08-05T20:34:11.560Z,0.00
2022-08-05T20:36:43.490Z,0.43
2022-08-05T20:39:13.001Z,0.20
2022-08-05T20:41:43.430Z,4.95
2022-08-05T20:44:17.876Z,0.47
2022-08-05T20:46:47.594Z,0.17
2022-08-05T20:49:18.446Z,0.30
2022-08-05T20:51:54.174Z,0.20
2022-08-05T20:54:22.556Z,2.42
2022-08-05T20:56:52.714Z,0.55
2022-08-05T20:59:26.467Z,0.15
2022-08-05T21:01:57.847Z,0.00
2022-08-05T21:04:26.960Z,0.20
2022-08-05T21:06:56.721Z,0.05
2022-08-05T21:09:25.932Z,1.75
2022-08-05T21:12:08.943Z,0.40
2022-08-05T21:14:39.611Z,0.08
2022-08-05T21:17:07.523Z,0.13
2022-08-05T21:19:47.528Z,0.00
2022-08-05T21:22:21.980Z,0.22
2022-08-05T21:24:52.525Z,0.82
2022-08-05T21:27:24.992Z,0.10
2022-08-05T21:29:54.200Z,5.85
2022-08-05T21:32:24.449Z,0.00
2022-08-05T21:35:06.704Z,0.00
2022-08-05T21:37:47.328Z,0.00
2022-08-05T21:40:23.346Z,0.00
2022-08-05T21:42:52.013Z,0.00
2022-08-05T21:45:25.118Z,0.17
2022-08-05T21:48:08.166Z,0.95
2022-08-05T21:50:36.761Z,0.65
2022-08-05T21:53:16.142Z,3.20
2022-08-05T21:56:05.308Z,0.00
2022-08-05T21:58:32.713Z,0.57
2022-08-05T22:01:01.132Z,0.90
2022-08-05T22:03:52.363Z,0.10
2022-08-05T22:06:22.847Z,0.25
2022-08-05T22:09:13.858Z,0.40
2022-08-05T22:11:43.496Z,0.43
2022-08-05T22:14:35.141Z,0.00
2022-08-05T22:17:06.687Z,1.20
2022-08-05T22:20:01.660Z,0.00
2022-08-05T22:22:28.001Z,0.00
2022-08-05T22:25:21.545Z,0.32
2022-08-05T22:28:08.857Z,0.00
2022-08-05T22:30:55.345Z,0.25
2022-08-05T22:33:57.913Z,0.00
2022-08-05T22:36:15.359Z,2.90
2022-08-05T22:38:48.011Z,0.00
2022-08-05T22:42:04.399Z,0.00
2022-08-05T22:44:08.651Z,0.00
2022-08-05T22:46:40.149Z,0.00
2022-08-05T22:49:12.404Z,0.20
2022-08-05T22:52:04.937Z,0.00
2022-08-05T22:54:36.542Z,1.42
2022-08-05T22:57:06.264Z,0.00
2022-08-05T22:59:46.114Z,0.00
2022-08-05T23:02:17.719Z,0.00
2022-08-05T23:04:51.391Z,0.00
2022-08-05T23:07:22.000Z,0.25
2022-08-05T23:09:57.806Z,0.47
2022-08-05T23:12:32.988Z,2.55
2022-08-05T23:15:03.585Z,1.75
2022-08-05T23:17:37.445Z,0.57
2022-08-05T23:20:20.427Z,0.00
2022-08-05T23:22:56.301Z,0.28
2022-08-05T23:25:54.847Z,0.00
2022-08-05T23:28:15.804Z,0.00
2022-08-05T23:30:53.516Z,0.05
2022-08-05T23:34:02.897Z,0.00
2022-08-05T23:36:10.646Z,0.00
2022-08-05T23:38:38.793Z,1.95
2022-08-05T23:41:06.959Z,0.30
2022-08-05T23:44:05.229Z,0.00
2022-08-05T23:46:24.033Z,0.10
2022-08-05T23:48:59.608Z,0.08
2022-08-05T23:51:54.238Z,0.05
2022-08-05T23:54:25.070Z,0.32
2022-08-05T23:56:58.241Z,4.38
